Time;durP1;ratioP1;P1;durP2;ratioP2;P2;SDS_P1;SDS_P2;PMS_P1;PMS_P2;Temp;Humidity;BMP_temperature;BMP_pressure;BME280_temperature;BME280_humidity;BME280_pressure;Samples;Min_cycle;Max_cycle;Signal;HPM_P1;HPM_P2
2023/05/01 00:00:52;;;;;;;7.72;3.75;;;;;;;;;;5093929;28;20039;-62
2023/05/01 00:03:18;;;;;;;7.38;3.55;;;17.90;79.30;;;;;;5093664;28;20039;-61
2023/05/01 00:05:44;;;;;;;6.88;3.88;;;18.20;77.50;;;;;;5107199;28;20046;-62
2023/05/01 00:08:10;;;;;;;6.10;3.28;;;17.90;79.60;;;;;;5077001;28;20036;-60
2023/05/01 00:10:36;;;;;;;6.97;3.45;;;;;;;;;;5093744;28;20058;-62
2023/05/01 00:13:02;;;;;;;7.38;3.45;;;17.90;77.60;;;;;;5095094;28;20086;-61
2023/05/01 00:15:29;;;;;;;7.18;3.50;;;17.80;75.90;;;;;;5108581;28;20078;-62
2023/05/01 00:17:55;;;;;;;6.63;3.15;;;18.00;77.50;;;;;;5110979;28;20090;-62
2023/05/01 00:20:22;;;;;;;5.88;3.30;;;17.90;79.40;;;;;;5111547;28;20056;-61
2023/05/01 00:22:48;;;;;;;8.00;3.65;;;17.60;79.30;;;;;;5103174;28;20099;-61
2023/05/01 00:25:14;;;;;;;7.20;3.38;;;;;;;;;;5087716;28;20123;-61
2023/05/01 00:27:40;;;;;;;6.82;3.58;;;17.90;79.40;;;;;;5093876;28;20205;-63
2023/05/01 00:30:06;;;;;;;6.30;3.20;;;18.00;75.50;;;;;;5112793;28;20549;-64
2023/05/01 00:32:33;;;;;;;5.45;3.40;;;;;;;;;;5111248;28;20514;-64
2023/05/01 00:34:59;;;;;;;5.45;3.30;;;17.90;76.50;;;;;;5112501;28;20052;-64
2023/05/01 00:37:25;;;;;;;7.07;3.42;;;;;;;;;;5109290;28;20100;-64
2023/05/01 00:39:51;;;;;;;7.35;3.35;;;17.80;77.10;;;;;;5105261;28;20043;-64
2023/05/01 00:42:17;;;;;;;8.43;3.60;;;17.70;79.20;;;;;;5111434;28;20040;-64
2023/05/01 00:44:43;;;;;;;8.15;3.45;;;;;;;;;;5088954;28;20055;-64
2023/05/01 00:47:09;;;;;;;7.07;3.40;;;;;;;;;;5094472;28;20048;-64
2023/05/01 00:49:35;;;;;;;8.52;3.05;;;;;;;;;;5109478;28;20047;-64
2023/05/01 00:52:01;;;;;;;6.90;3.70;;;17.80;76.10;;;;;;5109033;28;20050;-64
2023/05/01 00:54:27;;;;;;;6.57;3.38;;;;;;;;;;5112354;28;20365;-64
2023/05/01 00:56:53;;;;;;;5.63;3.22;;;17.70;78.60;;;;;;5085135;28;20039;-64
2023/05/01 00:59:19;;;;;;;6.82;3.33;;;;;;;;;;5083475;28;20055;-63
2023/05/01 01:01:46;;;;;;;7.15;3.13;;;17.90;76.20;;;;;;5092428;28;20083;-60
2023/05/01 01:04:12;;;;;;;7.47;3.30;;;;;;;;;;5112286;28;20483;-61
2023/05/01 01:07:04;;;;;;;6.20;3.75;;;18.00;74.90;;;;;;5110239;28;20101;-61
2023/05/01 01:09:39;;;;;;;6.80;3.20;;;18.00;74.90;;;;;;5111535;28;20039;-61
2023/05/01 01:12:12;;;;;;;6.20;3.25;;;17.70;75.90;;;;;;5110470;28;20051;-61
2023/05/01 01:14:49;;;;;;;8.15;3.75;;;17.80;74.60;;;;;;5081726;28;20040;-60
2023/05/01 01:17:33;;;;;;;7.55;3.03;;;17.90;74.70;;;;;;5093777;28;20423;-62
2023/05/01 01:20:17;;;;;;;5.90;3.30;;;17.90;74.20;;;;;;5094397;28;20401;-62
2023/05/01 01:22:50;;;;;;;6.22;3.33;;;17.60;75.70;;;;;;5092540;28;20051;-61
2023/05/01 01:25:22;;;;;;;;;;;17.80;76.30;;;;;;5078791;28;20055;-60
2023/05/01 01:27:57;;;;;;;6.88;3.72;;;18.00;79.10;;;;;;5115692;28;19919;-61
2023/05/01 01:31:15;;;;;;;7.38;3.20;;;17.60;76.10;;;;;;5109778;28;20127;-61
2023/05/01 01:34:00;;;;;;;5.70;3.00;;;18.00;75.80;;;;;;5050105;28;20056;-61
2023/05/01 01:36:47;;;;;;;8.38;3.47;;;17.60;74.60;;;;;;5052346;28;20049;-61
2023/05/01 01:39:24;;;;;;;5.93;3.08;;;17.60;74.40;;;;;;5051532;28;20041;-61
2023/05/01 01:41:51;;;;;;;8.55;3.50;;;17.80;75.00;;;;;;5033536;28;20057;-62
2023/05/01 01:44:24;;;;;;;8.23;3.30;;;18.00;74.20;;;;;;5036034;28;20091;-64
2023/05/01 01:46:50;;;;;;;7.10;3.25;;;;;;;;;;5019312;28;20059;-62
2023/05/01 01:49:19;;;;;;;5.90;3.25;;;;;;;;;;5034521;28;20518;-60
2023/05/01 01:51:45;;;;;;;6.25;3.35;;;17.70;78.70;;;;;;5019086;28;20132;-64
2023/05/01 01:54:11;;;;;;;6.05;3.30;;;;;;;;;;5050682;28;20072;-64
2023/05/01 01:56:37;;;;;;;5.68;2.95;;;17.70;78.70;;;;;;5035519;28;20052;-61
2023/05/01 01:59:02;;;;;;;5.50;2.85;;;17.80;78.80;;;;;;5035097;28;20550;-61
2023/05/01 02:01:29;;;;;;;7.47;3.40;;;;;;;;;;5019451;28;20056;-62
2023/05/01 02:03:54;;;;;;;5.60;2.90;;;17.70;78.60;;;;;;5033910;28;20053;-61
2023/05/01 02:06:20;;;;;;;7.57;3.28;;;18.00;76.50;;;;;;5034936;28;20044;-61
2023/05/01 02:08:46;;;;;;;5.90;3.30;;;;;;;;;;5027616;28;20060;-63
2023/05/01 02:11:13;;;;;;;6.32;2.90;;;17.90;78.70;;;;;;5073433;28;20486;-61
2023/05/01 02:13:39;;;;;;;7.40;3.40;;;17.80;76.90;;;;;;5091216;28;20392;-61
2023/05/01 02:16:05;;;;;;;5.88;3.00;;;17.80;78.60;;;;;;5094480;28;20135;-61
2023/05/01 02:18:31;;;;;;;6.78;3.45;;;17.80;78.70;;;;;;5092502;28;20042;-63
2023/05/01 02:20:57;;;;;;;5.53;2.90;;;;;;;;;;5074162;28;20476;-61
2023/05/01 02:23:24;;;;;;;5.82;3.35;;;17.60;75.70;;;;;;5075996;28;20042;-62
2023/05/01 02:25:50;;;;;;;14.05;4.05;;;17.40;77.80;;;;;;5094002;28;20062;-60
2023/05/01 02:28:17;;;;;;;7.63;3.30;;;17.80;78.70;;;;;;5093613;28;20047;-61
2023/05/01 02:30:45;;;;;;;7.60;2.88;;;;;;;;;;5077034;28;20086;-61
2023/05/01 02:33:12;;;;;;;6.18;3.28;;;;;;;;;;5104064;28;20052;-60
2023/05/01 02:35:39;;;;;;;5.50;3.20;;;17.60;76.90;;;;;;5115181;28;20096;-63
2023/05/01 02:38:06;;;;;;;7.43;3.53;;;;;;;;;;5086488;28;20044;-61
2023/05/01 02:40:32;;;;;;;6.65;3.20;;;17.60;78.50;;;;;;5114690;28;20065;-60
2023/05/01 02:42:58;;;;;;;6.60;3.35;;;;;;;;;;5079173;28;20040;-61
2023/05/01 02:45:24;;;;;;;8.98;3.50;;;17.80;78.60;;;;;;5079549;28;20429;-60
2023/05/01 02:47:52;;;;;;;5.47;3.15;;;17.60;76.10;;;;;;5086522;28;20122;-61
2023/05/01 02:50:18;;;;;;;6.13;3.17;;;17.70;77.60;;;;;;5106482;28;20043;-61
2023/05/01 02:52:44;;;;;;;7.88;3.45;;;17.60;78.50;;;;;;5096066;28;20062;-61
2023/05/01 02:55:10;;;;;;;6.22;3.22;;;17.50;78.50;;;;;;5092250;28;20050;-61
2023/05/01 02:57:35;;;;;;;6.18;3.03;;;17.60;78.00;;;;;;5094515;28;20048;-60
2023/05/01 03:00:02;;;;;;;7.90;3.40;;;;;;;;;;5091756;28;20044;-60
2023/05/01 03:02:28;;;;;;;7.40;3.50;;;;;;;;;;5110470;28;20046;-61
2023/05/01 03:04:54;;;;;;;7.78;3.78;;;17.50;78.40;;;;;;5113443;28;20051;-61
2023/05/01 03:07:20;;;;;;;6.57;3.30;;;17.80;75.50;;;;;;5095184;28;20416;-61
2023/05/01 03:09:46;;;;;;;7.03;3.28;;;;;;;;;;5111713;28;20112;-64
2023/05/01 03:12:12;;;;;;;10.82;3.60;;;;;;;;;;5111563;28;20043;-60
2023/05/01 03:14:38;;;;;;;9.32;3.42;;;;;;;;;;5112802;28;20165;-64
2023/05/01 03:17:04;;;;;;;7.75;3.63;;;;;;;;;;5113255;28;20087;-60
2023/05/01 03:19:31;;;;;;;6.97;3.53;;;;;;;;;;5112484;28;20144;-61
2023/05/01 03:21:56;;;;;;;6.40;3.55;;;17.40;78.40;;;;;;5112375;28;20032;-61
2023/05/01 03:24:23;;;;;;;6.47;3.45;;;17.30;77.60;;;;;;5112571;28;20050;-60
2023/05/01 03:26:48;;;;;;;6.05;3.13;;;17.60;78.50;;;;;;5112730;28;20449;-61
2023/05/01 03:29:14;;;;;;;6.30;3.50;;;17.50;78.40;;;;;;5111746;28;20112;-61
2023/05/01 03:31:40;;;;;;;6.95;3.10;;;;;;;;;;5112161;28;20048;-63
2023/05/01 03:34:06;;;;;;;5.70;3.45;;;;;;;;;;5113208;28;20130;-61
2023/05/01 03:36:32;;;;;;;6.88;3.50;;;17.70;78.50;;;;;;5112438;28;20040;-60
2023/05/01 03:38:58;;;;;;;7.07;3.50;;;17.60;78.50;;;;;;5094619;28;20054;-61
2023/05/01 03:41:25;;;;;;;6.72;3.30;;;;;;;;;;5110687;28;20127;-61
2023/05/01 03:43:51;;;;;;;6.78;3.65;;;;;;;;;;5112789;28;20052;-62
2023/05/01 03:46:17;;;;;;;7.47;3.58;;;17.60;77.80;;;;;;5092356;28;20174;-61
2023/05/01 03:48:43;;;;;;;9.23;4.18;;;;;;;;;;5113284;28;20118;-64
2023/05/01 03:51:09;;;;;;;6.82;3.20;;;;;;;;;;5112314;28;20414;-64
2023/05/01 03:53:35;;;;;;;6.63;3.42;;;;;;;;;;5112311;28;20043;-64
2023/05/01 03:56:03;;;;;;;6.75;3.40;;;;;;;;;;5111973;28;20112;-65
2023/05/01 03:58:29;;;;;;;7.35;3.70;;;17.50;78.30;;;;;;5112980;28;20043;-64
2023/05/01 04:00:57;;;;;;;7.97;3.90;;;;;;;;;;5112973;28;20047;-64
2023/05/01 04:03:23;;;;;;;7.20;3.78;;;17.30;76.20;;;;;;5088126;28;20058;-64
2023/05/01 04:05:48;;;;;;;10.02;4.18;;;17.20;78.10;;;;;;5090049;28;20043;-63
2023/05/01 04:08:14;;;;;;;6.70;3.33;;;17.20;78.20;;;;;;5092243;28;20039;-64
2023/05/01 04:10:40;;;;;;;8.18;4.30;;;17.40;78.30;;;;;;5093632;28;20074;-60
2023/05/01 04:13:06;;;;;;;6.47;3.60;;;;;;;;;;5112329;28;20040;-64
2023/05/01 04:15:32;;;;;;;8.70;4.00;;;;;;;;;;5110269;28;20497;-63
2023/05/01 04:17:58;;;;;;;7.03;3.50;;;17.60;78.10;;;;;;5113329;28;20084;-61
2023/05/01 04:20:24;;;;;;;7.68;3.60;;;17.50;78.30;;;;;;5112651;28;20509;-60
2023/05/01 04:22:50;;;;;;;9.38;3.85;;;17.30;78.10;;;;;;5093664;28;20047;-61
2023/05/01 04:25:15;;;;;;;7.28;3.70;;;17.40;76.60;;;;;;5112502;28;20492;-60
2023/05/01 04:27:41;;;;;;;6.30;3.67;;;;;;;;;;5112683;28;20370;-60
2023/05/01 04:30:08;;;;;;;7.25;3.60;;;17.40;74.30;;;;;;5113077;28;20054;-62
2023/05/01 04:32:35;;;;;;;6.43;3.47;;;;;;;;;;5094234;28;20048;-60
2023/05/01 04:35:00;;;;;;;10.40;3.58;;;17.30;78.20;;;;;;5094749;28;20047;-61
2023/05/01 04:37:27;;;;;;;8.90;3.60;;;;;;;;;;5111184;28;20050;-62
2023/05/01 04:39:54;;;;;;;5.95;3.38;;;;;;;;;;5110706;28;20047;-60
2023/05/01 04:42:20;;;;;;;7.45;4.22;;;17.50;75.00;;;;;;5102805;28;20044;-60
2023/05/01 04:44:46;;;;;;;8.05;4.20;;;;;;;;;;5109449;28;20511;-60
2023/05/01 04:47:12;;;;;;;7.68;4.20;;;17.50;77.60;;;;;;5106159;28;20035;-60
2023/05/01 04:49:38;;;;;;;7.32;3.40;;;;;;;;;;5103252;28;20118;-60
2023/05/01 04:52:04;;;;;;;6.07;4.05;;;17.40;78.10;;;;;;5081867;28;20483;-61
2023/05/01 04:54:30;;;;;;;6.85;3.70;;;;;;;;;;5101034;28;20047;-60
2023/05/01 04:56:56;;;;;;;6.68;3.63;;;;;;;;;;5106954;28;20484;-60
2023/05/01 04:59:22;;;;;;;6.30;3.83;;;;;;;;;;5105784;28;20445;-60
2023/05/01 05:01:49;;;;;;;6.43;3.95;;;17.70;77.90;;;;;;5105302;28;20080;-61
2023/05/01 05:04:15;;;;;;;7.10;3.55;;;17.50;77.50;;;;;;5069960;28;20381;-60
2023/05/01 05:06:40;;;;;;;6.43;3.75;;;18.00;76.70;;;;;;5111216;28;20091;-61
2023/05/01 05:09:07;;;;;;;8.57;4.15;;;;;;;;;;5111504;28;20389;-62
2023/05/01 05:11:33;;;;;;;6.95;3.92;;;18.10;75.70;;;;;;5094625;28;20079;-60
2023/05/01 05:13:59;;;;;;;7.03;3.53;;;;;;;;;;5111887;28;20191;-61
2023/05/01 05:16:25;;;;;;;7.65;4.05;;;;;;;;;;5108208;28;20400;-62
2023/05/01 05:18:51;;;;;;;8.02;4.05;;;;;;;;;;5115451;28;20384;-60
2023/05/01 05:21:17;;;;;;;7.22;4.40;;;;;;;;;;5104646;28;20548;-61
2023/05/01 05:23:43;;;;;;;6.47;3.30;;;18.40;77.40;;;;;;5089169;28;20043;-61
2023/05/01 05:26:09;;;;;;;7.82;3.72;;;18.40;77.30;;;;;;5114519;28;20408;-60
2023/05/01 05:28:35;;;;;;;8.02;3.60;;;;;;;;;;5111883;28;20039;-62
2023/05/01 05:31:01;;;;;;;7.78;3.85;;;18.60;76.80;;;;;;5108852;28;20127;-62
2023/05/01 05:33:27;;;;;;;7.95;4.20;;;;;;;;;;5108687;28;20150;-60
2023/05/01 05:35:54;;;;;;;6.57;3.80;;;;;;;;;;5110907;28;20087;-62
2023/05/01 05:38:20;;;;;;;7.32;3.70;;;;;;;;;;5084770;28;20036;-60
2023/05/01 05:40:46;;;;;;;6.05;3.75;;;;;;;;;;5107254;28;20100;-60
2023/05/01 05:43:12;;;;;;;6.65;3.50;;;;;;;;;;5113896;28;20050;-60
2023/05/01 05:45:39;;;;;;;8.35;4.35;;;;;;;;;;5085525;28;20121;-60
2023/05/01 05:48:05;;;;;;;6.65;3.83;;;;;;;;;;5106752;28;20052;-60
2023/05/01 05:50:31;;;;;;;6.97;3.72;;;19.60;73.70;;;;;;5108747;28;20043;-62
2023/05/01 05:52:57;;;;;;;7.38;3.72;;;;;;;;;;5085711;28;20130;-60
2023/05/01 05:55:23;;;;;;;7.60;4.13;;;19.30;75.40;;;;;;5113906;28;20031;-60
2023/05/01 05:57:49;;;;;;;7.90;4.20;;;;;;;;;;5103359;28;20039;-63
2023/05/01 06:00:16;;;;;;;7.15;4.40;;;19.70;75.80;;;;;;5113053;28;20119;-61
2023/05/01 06:02:42;;;;;;;7.10;3.97;;;;;;;;;;5113243;28;20039;-62
2023/05/01 06:05:09;;;;;;;8.07;3.78;;;19.80;75.60;;;;;;5087538;28;20074;-64
2023/05/01 06:07:36;;;;;;;6.28;3.72;;;19.50;72.00;;;;;;5115514;28;20039;-61
2023/05/01 06:10:05;;;;;;;7.68;4.05;;;19.70;72.70;;;;;;5114930;28;20052;-61
2023/05/01 06:12:31;;;;;;;6.90;3.90;;;19.90;75.60;;;;;;5114238;28;20189;-60
2023/05/01 06:14:58;;;;;;;9.25;4.55;;;19.90;73.50;;;;;;5110895;28;20122;-61
2023/05/01 06:17:24;;;;;;;7.20;4.45;;;19.80;75.60;;;;;;5112751;28;20127;-60
2023/05/01 06:19:52;;;;;;;6.65;4.35;;;19.90;75.70;;;;;;5087516;28;20382;-60
2023/05/01 06:22:18;;;;;;;7.40;4.53;;;19.70;72.30;;;;;;5098610;28;20375;-60
2023/05/01 06:24:45;;;;;;;7.25;4.05;;;;;;;;;;5112498;28;20040;-60
2023/05/01 06:27:11;;;;;;;6.50;3.78;;;19.80;75.60;;;;;;5096360;28;20167;-60
2023/05/01 06:29:37;;;;;;;6.32;3.65;;;19.90;75.60;;;;;;5097103;28;20048;-59
2023/05/01 06:32:03;;;;;;;6.80;3.65;;;19.90;72.80;;;;;;5115008;28;20043;-60
2023/05/01 06:34:30;;;;;;;7.30;4.13;;;;;;;;;;5087145;28;20057;-63
2023/05/01 06:36:55;;;;;;;5.45;3.25;;;20.20;75.40;;;;;;5086035;28;20054;-59
2023/05/01 06:39:21;;;;;;;7.65;3.90;;;;;;;;;;5084983;28;20040;-60
2023/05/01 06:41:48;;;;;;;6.32;3.53;;;;;;;;;;5094440;28;20397;-62
2023/05/01 06:44:14;;;;;;;6.38;3.75;;;;;;;;;;5094199;28;20097;-61
2023/05/01 06:46:40;;;;;;;6.85;3.67;;;20.70;72.10;;;;;;5093276;28;20040;-61
2023/05/01 06:49:06;;;;;;;7.45;3.90;;;20.70;75.10;;;;;;5073730;28;20047;-61
2023/05/01 06:51:32;;;;;;;8.70;4.07;;;20.60;74.70;;;;;;5090016;28;20040;-59
2023/05/01 06:53:58;;;;;;;6.47;3.80;;;20.50;73.40;;;;;;5087218;28;20032;-62
2023/05/01 06:56:24;;;;;;;6.88;3.95;;;;;;;;;;5092148;28;20052;-63
2023/05/01 06:58:50;;;;;;;9.15;4.47;;;20.60;74.70;;;;;;5093048;28;20096;-60
2023/05/01 07:01:16;;;;;;;7.38;4.00;;;;;;;;;;5093251;28;20044;-61
2023/05/01 07:03:42;;;;;;;6.70;3.80;;;20.80;74.70;;;;;;5092263;28;20128;-63
2023/05/01 07:06:08;;;;;;;6.90;4.20;;;;;;;;;;5086752;28;20066;-64
2023/05/01 07:08:34;;;;;;;7.82;4.20;;;;;;;;;;5083896;28;20522;-62
2023/05/01 07:11:01;;;;;;;7.55;3.70;;;;;;;;;;5086508;28;20044;-62
2023/05/01 07:13:27;;;;;;;6.80;3.97;;;;;;;;;;5082603;28;20051;-60
2023/05/01 07:15:53;;;;;;;8.90;3.97;;;20.80;74.30;;;;;;5081387;28;20043;-61
2023/05/01 07:18:19;;;;;;;9.48;4.10;;;20.90;72.60;;;;;;5091454;28;20036;-61
2023/05/01 07:20:45;;;;;;;8.05;4.35;;;21.10;71.80;;;;;;5089498;28;20532;-61
2023/05/01 07:23:11;;;;;;;7.63;4.07;;;21.20;74.30;;;;;;5093610;28;20040;-60
2023/05/01 07:25:37;;;;;;;6.25;4.05;;;21.20;71.70;;;;;;5092609;28;20040;-61
2023/05/01 07:28:04;;;;;;;6.32;3.53;;;;;;;;;;5090410;28;20123;-60
2023/05/01 07:30:31;;;;;;;7.22;3.95;;;;;;;;;;5085359;28;20430;-64
2023/05/01 07:32:58;;;;;;;8.65;3.53;;;;;;;;;;5089900;28;20150;-61
2023/05/01 07:35:24;;;;;;;6.28;3.72;;;;;;;;;;5104187;28;20059;-62
2023/05/01 07:37:50;;;;;;;6.93;3.83;;;21.30;69.90;;;;;;5104055;28;20040;-60
2023/05/01 07:40:16;;;;;;;7.90;3.80;;;21.30;73.90;;;;;;5108851;28;20043;-61
2023/05/01 07:42:42;;;;;;;7.18;4.18;;;21.40;74.00;;;;;;5085495;28;20050;-60
2023/05/01 07:45:08;;;;;;;8.30;4.20;;;;;;;;;;5082583;28;20040;-62
2023/05/01 07:47:35;;;;;;;6.25;3.35;;;21.20;73.80;;;;;;5103197;28;20051;-61
2023/05/01 07:50:01;;;;;;;7.63;3.78;;;;;;;;;;5107264;28;20043;-63
2023/05/01 07:52:27;;;;;;;8.45;4.05;;;21.50;74.00;;;;;;5104836;28;20096;-61
2023/05/01 07:54:53;;;;;;;6.03;3.50;;;21.40;73.90;;;;;;5085045;28;20043;-60
2023/05/01 07:57:19;;;;;;;7.85;4.40;;;21.60;70.60;;;;;;5102393;28;20088;-59
2023/05/01 07:59:45;;;;;;;6.57;3.72;;;21.60;73.90;;;;;;5104442;28;20419;-60
2023/05/01 08:02:12;;;;;;;5.72;3.05;;;;;;;;;;5110946;28;20477;-62
2023/05/01 08:04:39;;;;;;;6.57;3.80;;;21.60;73.70;;;;;;5111688;28;20043;-60
2023/05/01 08:07:04;;;;;;;6.68;3.30;;;21.80;73.60;;;;;;5105627;28;20039;-61
2023/05/01 08:09:30;;;;;;;8.45;3.75;;;21.50;73.70;;;;;;5092449;28;20489;-60
2023/05/01 08:11:56;;;;;;;8.75;3.78;;;21.80;73.90;;;;;;5103368;28;20051;-61
2023/05/01 08:14:22;;;;;;;7.75;3.72;;;;;;;;;;5111706;28;20043;-61
2023/05/01 08:16:53;;;;;;;6.38;3.55;;;21.80;73.80;;;;;;5112703;28;20036;-60
2023/05/01 08:19:18;;;;;;;6.97;3.83;;;21.80;71.40;;;;;;5092707;28;20513;-60
2023/05/01 08:21:44;;;;;;;9.30;4.57;;;21.60;73.90;;;;;;5103709;28;20038;-60
2023/05/01 08:24:10;;;;;;;8.32;3.60;;;21.50;73.90;;;;;;5112985;28;20370;-60
2023/05/01 08:26:36;;;;;;;7.00;3.50;;;21.80;74.10;;;;;;5111191;28;20460;-61
2023/05/01 08:29:02;;;;;;;8.60;4.72;;;;;;;;;;5111068;28;20093;-60
2023/05/01 08:31:28;;;;;;;7.30;3.78;;;21.80;71.40;;;;;;5112506;28;20509;-61
2023/05/01 08:33:54;;;;;;;7.32;3.80;;;21.60;73.90;;;;;;5108211;28;20096;-61
2023/05/01 08:36:19;;;;;;;8.30;3.85;;;21.80;70.80;;;;;;5107946;28;20036;-61
2023/05/01 08:38:45;;;;;;;8.57;4.47;;;21.70;71.50;;;;;;5097769;28;20083;-61
2023/05/01 08:41:20;;;;;;;8.77;5.03;;;21.70;73.80;;;;;;5097803;28;20059;-61
2023/05/01 08:43:46;;;;;;;8.57;4.80;;;;;;;;;;5115652;28;20097;-63
2023/05/01 08:46:12;;;;;;;9.18;4.63;;;21.40;73.50;;;;;;5115237;28;20039;-60
2023/05/01 08:48:38;;;;;;;9.82;4.57;;;21.60;73.70;;;;;;5097829;28;20043;-61
2023/05/01 08:51:04;;;;;;;7.57;4.07;;;21.30;73.40;;;;;;5077524;28;20479;-60
2023/05/01 08:53:30;;;;;;;8.52;4.50;;;21.10;69.80;;;;;;5080092;28;20126;-63
2023/05/01 08:55:56;;;;;;;8.45;4.88;;;;;;;;;;5116703;28;20126;-63
2023/05/01 08:58:23;;;;;;;7.93;4.47;;;21.20;73.20;;;;;;5115190;28;20055;-60
2023/05/01 09:00:49;;;;;;;8.68;4.63;;;21.30;70.90;;;;;;5114138;28;20043;-62
2023/05/01 09:03:16;;;;;;;7.05;3.85;;;21.10;73.00;;;;;;5097751;28;20457;-61
2023/05/01 09:05:42;;;;;;;9.32;5.00;;;21.30;71.80;;;;;;5096571;28;20127;-62
2023/05/01 09:08:07;;;;;;;9.60;4.53;;;21.00;70.50;;;;;;5108463;28;20046;-62
2023/05/01 09:10:33;;;;;;;10.38;4.45;;;21.30;69.90;;;;;;5088439;28;20123;-61
2023/05/01 09:13:05;;;;;;;9.50;4.68;;;21.10;72.90;;;;;;5080842;28;20081;-61
2023/05/01 09:15:31;;;;;;;8.52;4.00;;;21.50;70.20;;;;;;5098519;28;20136;-61
2023/05/01 09:17:58;;;;;;;7.88;4.57;;;;;;;;;;5093602;28;20489;-67
2023/05/01 09:20:24;;;;;;;8.07;3.80;;;21.20;72.90;;;;;;5087145;28;20397;-61
2023/05/01 09:22:49;;;;;;;9.65;4.40;;;21.50;73.00;;;;;;5110556;28;20047;-61
2023/05/01 09:25:16;;;;;;;9.73;4.32;;;;;;;;;;5114601;28;20036;-60
2023/05/01 09:27:42;;;;;;;11.98;4.18;;;;;;;;;;5110553;28;20046;-61
2023/05/01 09:30:08;;;;;;;11.52;4.50;;;21.70;69.10;;;;;;5092418;28;20040;-61
2023/05/01 09:32:34;;;;;;;13.45;4.63;;;21.70;73.10;;;;;;5115712;28;20447;-62
2023/05/01 09:35:11;;;;;;;8.68;4.15;;;21.40;68.20;;;;;;5106726;28;20060;-61
2023/05/01 09:37:36;;;;;;;9.32;3.50;;;21.60;73.00;;;;;;5080545;28;20130;-61
2023/05/01 09:40:03;;;;;;;7.88;4.10;;;;;;;;;;5116250;28;20079;-61
2023/05/01 09:42:31;;;;;;;9.18;3.65;;;21.60;69.70;;;;;;5116051;28;20039;-61
2023/05/01 09:44:57;;;;;;;11.07;3.78;;;21.70;73.20;;;;;;5113203;28;20107;-61
2023/05/01 09:47:23;;;;;;;8.52;3.80;;;21.70;73.20;;;;;;5115271;28;20087;-61
2023/05/01 09:49:49;;;;;;;8.20;3.45;;;21.70;73.20;;;;;;5115310;28;20036;-61
2023/05/01 09:52:15;;;;;;;7.97;3.38;;;21.70;73.40;;;;;;5115123;28;20141;-61
2023/05/01 09:54:42;;;;;;;9.65;3.78;;;21.90;70.30;;;;;;5114658;28;20106;-63
2023/05/01 09:57:08;;;;;;;8.80;3.60;;;;;;;;;;5112683;28;20546;-60
2023/05/01 09:59:34;;;;;;;7.25;3.30;;;21.70;73.40;;;;;;5097002;28;20056;-68
2023/05/01 10:02:00;;;;;;;9.80;3.60;;;;;;;;;;5077698;28;20044;-60
2023/05/01 10:04:33;;;;;;;8.55;3.22;;;22.00;73.60;;;;;;5076863;28;20047;-60
2023/05/01 10:07:12;;;;;;;11.45;3.42;;;22.00;73.00;;;;;;5100121;28;20114;-60
2023/05/01 10:09:38;;;;;;;7.20;3.35;;;21.90;73.90;;;;;;5096741;28;20141;-60
2023/05/01 10:12:04;;;;;;;5.82;3.35;;;21.80;73.80;;;;;;5105163;28;20393;-60
2023/05/01 10:14:32;;;;;;;7.45;3.63;;;21.90;73.80;;;;;;5105678;28;20127;-61
2023/05/01 10:16:58;;;;;;;7.05;3.25;;;22.10;74.10;;;;;;5103759;28;20048;-60
2023/05/01 10:19:24;;;;;;;9.23;3.08;;;21.80;74.00;;;;;;5107850;28;20092;-60
2023/05/01 10:21:50;;;;;;;8.27;3.30;;;22.20;74.30;;;;;;5108694;28;20086;-61
2023/05/01 10:24:16;;;;;;;9.38;3.70;;;22.20;74.40;;;;;;5110110;28;20043;-60
2023/05/01 10:26:42;;;;;;;7.25;3.20;;;22.00;72.50;;;;;;5104872;28;20031;-60
2023/05/01 10:29:08;;;;;;;14.02;3.65;;;21.80;72.00;;;;;;5108020;28;20448;-61
2023/05/01 10:31:34;;;;;;;13.98;3.50;;;;;;;;;;5102834;28;20100;-61
2023/05/01 10:34:01;;;;;;;8.00;3.15;;;;;;;;;;5098495;28;20497;-60
2023/05/01 10:36:55;;;;;;;9.20;3.25;;;21.90;69.20;;;;;;5108615;28;20052;-62
2023/05/01 10:39:34;;;;;;;12.73;3.22;;;22.00;74.20;;;;;;5083993;28;20052;-60
2023/05/01 10:42:04;;;;;;;8.23;3.67;;;22.00;71.00;;;;;;5104442;28;20036;-63
2023/05/01 10:44:30;;;;;;;8.05;3.20;;;21.90;71.70;;;;;;5105223;28;20117;-60
2023/05/01 10:46:56;;;;;;;6.07;3.17;;;21.90;74.20;;;;;;5105425;28;20442;-60
2023/05/01 10:49:22;;;;;;;7.78;3.25;;;21.90;74.30;;;;;;5106090;28;20046;-61
2023/05/01 10:51:57;;;;;;;6.85;3.30;;;22.10;69.70;;;;;;5103132;28;20107;-61
2023/05/01 10:54:30;;;;;;;5.85;3.25;;;21.40;71.30;;;;;;5087810;28;20404;-66
2023/05/01 10:57:00;;;;;;;7.18;3.35;;;21.60;71.20;;;;;;5104765;28;20072;-65
2023/05/01 10:59:46;;;;;;;7.90;3.30;;;22.10;73.20;;;;;;5101374;28;20053;-65
2023/05/01 11:02:21;;;;;;;7.40;2.70;;;22.30;74.70;;;;;;5090732;28;20051;-60
2023/05/01 11:04:49;;;;;;;10.15;3.00;;;22.20;71.50;;;;;;5106268;28;20438;-61
2023/05/01 11:07:17;;;;;;;7.50;3.22;;;22.00;74.30;;;;;;5086374;28;20039;-64
2023/05/01 11:09:43;;;;;;;7.10;3.13;;;22.20;74.60;;;;;;5100778;28;20118;-60
2023/05/01 11:12:10;;;;;;;6.72;3.20;;;22.00;74.60;;;;;;5084438;28;20392;-61
2023/05/01 11:15:01;;;;;;;8.68;3.58;;;22.10;71.40;;;;;;5105602;28;20417;-63
2023/05/01 11:17:41;;;;;;;8.88;3.10;;;22.20;70.10;;;;;;5077659;28;20525;-61
2023/05/01 11:20:08;;;;;;;9.25;2.97;;;;;;;;;;5101912;28;20046;-62
2023/05/01 11:22:34;;;;;;;6.10;3.20;;;22.10;75.00;;;;;;5101869;28;20458;-61
2023/05/01 11:25:03;;;;;;;8.18;3.55;;;22.70;71.60;;;;;;5104585;28;20405;-62
2023/05/01 11:27:32;;;;;;;6.82;2.72;;;22.10;74.80;;;;;;5101433;28;20044;-61
2023/05/01 11:29:58;;;;;;;8.43;2.97;;;;;;;;;;5106148;28;20044;-62
2023/05/01 11:32:28;;;;;;;6.90;2.80;;;21.90;74.80;;;;;;5101638;28;20556;-61
2023/05/01 11:34:55;;;;;;;6.78;2.80;;;22.20;73.90;;;;;;5103543;28;20054;-62
2023/05/01 11:37:43;;;;;;;7.13;3.17;;;22.10;71.80;;;;;;5106361;28;20040;-63
2023/05/01 11:40:28;;;;;;;9.55;3.17;;;22.30;70.50;;;;;;5093253;28;20040;-63
2023/05/01 11:43:07;;;;;;;12.65;2.90;;;22.00;75.10;;;;;;5102606;28;20063;-63
2023/05/01 11:45:34;;;;;;;8.38;3.00;;;22.30;75.30;;;;;;5112806;28;20039;-62
2023/05/01 11:48:01;;;;;;;11.75;3.28;;;;;;;;;;5113250;28;20083;-61
2023/05/01 11:50:37;;;;;;;9.23;3.58;;;22.30;75.30;;;;;;5111842;28;20047;-62
2023/05/01 11:53:14;;;;;;;7.97;2.97;;;22.30;75.30;;;;;;5108908;28;20084;-65
2023/05/01 11:55:40;;;;;;;12.07;3.40;;;22.00;71.60;;;;;;5113240;28;20128;-61
2023/05/01 11:58:06;;;;;;;5.75;2.95;;;22.20;75.00;;;;;;5112840;28;20067;-62
2023/05/01 12:00:33;;;;;;;6.93;2.80;;;22.30;71.40;;;;;;5079549;28;20044;-63
2023/05/01 12:03:01;;;;;;;11.25;3.00;;;22.30;75.50;;;;;;5095762;28;20043;-61
2023/05/01 12:05:27;;;;;;;8.70;2.67;;;22.30;75.60;;;;;;5113138;28;20066;-62
2023/05/01 12:08:07;;;;;;;9.77;2.70;;;22.40;75.70;;;;;;5111919;28;20418;-62
2023/05/01 12:10:33;;;;;;;8.77;2.80;;;22.30;75.20;;;;;;5108656;28;20054;-61
2023/05/01 12:12:59;;;;;;;8.93;3.13;;;22.30;75.80;;;;;;5087681;28;20115;-60
2023/05/01 12:15:25;;;;;;;7.28;2.97;;;22.40;75.80;;;;;;5093927;28;20053;-60
2023/05/01 12:17:52;;;;;;;7.40;2.40;;;;;;;;;;5090066;28;20043;-64
2023/05/01 12:20:32;;;;;;;5.40;2.63;;;22.20;75.80;;;;;;5108182;28;20047;-60
2023/05/01 12:22:58;;;;;;;7.85;2.90;;;22.50;72.90;;;;;;5094141;28;20044;-65
2023/05/01 12:25:30;;;;;;;8.25;3.10;;;22.40;75.80;;;;;;5109307;28;20047;-64
2023/05/01 12:27:56;;;;;;;15.05;3.58;;;22.30;75.50;;;;;;5110357;28;20035;-65
2023/05/01 12:30:26;;;;;;;8.55;3.72;;;22.30;72.70;;;;;;5109492;28;20132;-63
2023/05/01 12:32:52;;;;;;;15.50;4.70;;;22.50;75.10;;;;;;5085977;28;20523;-61
2023/05/01 12:35:18;;;;;;;17.98;4.13;;;22.30;75.10;;;;;;5099161;28;20040;-61
2023/05/01 12:37:44;;;;;;;13.63;4.25;;;22.20;74.90;;;;;;5092649;28;20056;-61
2023/05/01 12:40:13;;;;;;;7.60;3.15;;;22.30;74.60;;;;;;5090478;28;20096;-65
2023/05/01 12:42:39;;;;;;;12.20;3.83;;;;;;;;;;5111742;28;20120;-61
2023/05/01 12:45:06;;;;;;;12.05;3.40;;;22.30;75.40;;;;;;5112137;28;20491;-61
2023/05/01 12:47:37;;;;;;;10.50;3.08;;;22.20;75.30;;;;;;5112717;28;20039;-64
2023/05/01 12:50:04;;;;;;;6.63;2.80;;;22.30;75.50;;;;;;5108116;28;20055;-61
2023/05/01 12:52:30;;;;;;;9.05;2.95;;;;;;;;;;5108295;28;20048;-63
2023/05/01 12:55:05;;;;;;;9.32;3.25;;;22.40;75.30;;;;;;5112422;28;20392;-60
2023/05/01 12:57:31;;;;;;;9.23;2.97;;;22.30;75.70;;;;;;5112739;28;20070;-60
2023/05/01 13:00:00;;;;;;;7.00;2.40;;;22.30;72.60;;;;;;5108930;28;20512;-62
2023/05/01 13:02:30;;;;;;;8.80;2.78;;;22.30;75.70;;;;;;5111486;28;20036;-61
2023/05/01 13:05:10;;;;;;;8.75;2.45;;;22.80;71.30;;;;;;5112133;28;20401;-63
2023/05/01 13:07:36;;;;;;;8.05;3.10;;;22.60;76.00;;;;;;5104828;28;20044;-63
2023/05/01 13:10:02;;;;;;;6.88;2.97;;;;;;;;;;5091809;28;20044;-61
2023/05/01 13:12:28;;;;;;;8.32;3.63;;;22.20;75.70;;;;;;5100952;28;20052;-62
2023/05/01 13:14:54;;;;;;;5.15;2.47;;;22.40;75.80;;;;;;5108160;28;21742;-66
2023/05/01 13:17:27;;;;;;;7.65;2.78;;;22.50;71.20;;;;;;5112274;28;20051;-65
2023/05/01 13:19:57;;;;;;;7.15;2.55;;;22.20;75.80;;;;;;5112524;28;20046;-64
2023/05/01 13:22:33;;;;;;;7.45;2.65;;;22.50;75.90;;;;;;5112323;28;20108;-64